Time;durP1;ratioP1;P1;durP2;ratioP2;P2;SDS_P1;SDS_P2;PMS_P1;PMS_P2;Temp;Humidity;BMP_temperature;BMP_pressure;BME280_temperature;BME280_humidity;BME280_pressure;Samples;Min_cycle;Max_cycle;Signal;HPM_P1;HPM_P2
2023/12/12 00:02:11;;;;;;;10.10;4.60;;;;;;;12.41;36.59;100122.22;105584;1256;64925;-60
2023/12/12 00:04:39;;;;;;;9.50;4.50;;;;;;;12.42;36.62;100114.05;105723;1251;60426;-59
2023/12/12 00:07:07;;;;;;;8.30;3.20;;;;;;;12.42;36.69;100107.42;105735;1255;62525;-59
2023/12/12 00:09:35;;;;;;;6.80;2.90;;;;;;;12.38;36.72;100106.19;105467;1266;60708;-60
2023/12/12 00:12:03;;;;;;;11.40;3.10;;;;;;;12.43;36.69;100108.53;105489;1257;60427;-57
2023/12/12 00:14:30;;;;;;;11.70;4.60;;;;;;;12.56;36.51;100107.04;105908;1252;63692;-59
2023/12/12 00:16:58;;;;;;;8.70;3.70;;;;;;;12.60;36.54;100111.34;105528;1257;61365;-60
2023/12/12 00:19:26;;;;;;;8.80;3.10;;;;;;;12.69;36.53;100112.61;105478;1253;63698;-60
2023/12/12 00:21:53;;;;;;;10.50;3.80;;;;;;;12.80;36.38;100109.01;105513;1255;59939;-58
2023/12/12 00:24:21;;;;;;;10.20;3.20;;;;;;;12.87;36.22;100110.65;106049;1252;60491;-59
2023/12/12 00:26:49;;;;;;;13.20;4.60;;;;;;;12.91;36.28;100109.19;105337;1258;65394;-61
2023/12/12 00:29:16;;;;;;;11.60;4.90;;;;;;;12.92;36.30;100110.82;105471;1256;61986;-60
2023/12/12 00:31:44;;;;;;;10.50;3.60;;;;;;;12.93;36.17;100111.52;105505;1257;63734;-60
2023/12/12 00:34:12;;;;;;;13.40;4.10;;;;;;;12.94;36.16;100109.31;105504;1257;60482;-59
2023/12/12 00:36:39;;;;;;;10.00;3.70;;;;;;;12.91;36.04;100106.23;105440;1257;60301;-60
2023/12/12 00:39:07;;;;;;;10.00;4.70;;;;;;;12.81;36.02;100116.81;105487;1255;63804;-60
2023/12/12 00:41:35;;;;;;;11.50;4.60;;;;;;;12.73;35.98;100122.17;105720;1256;60459;-61
2023/12/12 00:44:03;;;;;;;13.90;5.50;;;;;;;12.67;35.92;100121.84;105448;1254;64239;-64
2023/12/12 00:46:31;;;;;;;9.40;3.90;;;;;;;12.66;35.93;100128.41;105882;1257;60437;-64
2023/12/12 00:48:59;;;;;;;11.80;4.90;;;;;;;12.59;35.99;100126.73;105564;1257;60391;-67
2023/12/12 00:51:27;;;;;;;9.20;3.20;;;;;;;12.58;36.11;100126.86;105994;1256;63772;-67
2023/12/12 00:53:54;;;;;;;11.00;3.60;;;;;;;12.63;36.02;100123.59;106046;1256;61314;-65
2023/12/12 00:56:22;;;;;;;10.20;3.70;;;;;;;12.65;36.10;100121.10;105519;1253;63760;-66
2023/12/12 00:58:50;;;;;;;12.10;3.80;;;;;;;12.59;36.07;100122.06;105595;1257;61596;-64
2023/12/12 01:01:18;;;;;;;11.70;4.80;;;;;;;12.56;36.13;100120.23;105557;1256;60436;-65
2023/12/12 01:03:45;;;;;;;9.30;4.20;;;;;;;12.52;36.24;100111.92;106318;1251;64976;-67
2023/12/12 01:06:23;;;;;;;10.80;4.00;;;;;;;12.50;36.27;100110.71;105592;1260;61871;-66
2023/12/12 01:08:55;;;;;;;9.20;4.10;;;;;;;12.54;36.21;100104.88;106042;1256;62474;-65
2023/12/12 01:11:23;;;;;;;11.90;3.60;;;;;;;12.48;36.36;100101.77;105596;1253;60900;-66
2023/12/12 01:13:51;;;;;;;11.90;5.40;;;;;;;12.40;36.34;100097.73;106110;1256;60360;-66
2023/12/12 01:16:19;;;;;;;10.60;4.40;;;;;;;12.35;36.37;100093.08;105555;1256;65013;-65
2023/12/12 01:18:46;;;;;;;11.40;5.70;;;;;;;12.31;36.59;100092.61;105565;1256;60415;-64
2023/12/12 01:21:14;;;;;;;13.60;4.90;;;;;;;12.28;36.59;100092.67;105541;1255;63714;-64
2023/12/12 01:23:55;;;;;;;8.60;4.00;;;;;;;12.25;36.57;100094.17;105628;1266;60549;-65
2023/12/12 01:26:23;;;;;;;16.60;5.50;;;;;;;12.28;36.47;100089.34;105562;1256;60550;-68
2023/12/12 01:28:50;;;;;;;14.30;5.00;;;;;;;12.34;36.53;100084.75;105542;1254;64975;-68
2023/12/12 01:31:18;;;;;;;10.30;3.10;;;;;;;12.39;36.48;100081.82;105492;1257;61633;-63
2023/12/12 01:33:48;;;;;;;11.00;4.60;;;;;;;12.43;36.35;100080.38;105668;1257;62486;-63
2023/12/12 01:36:16;;;;;;;14.10;5.30;;;;;;;12.42;36.38;100079.60;105587;1257;60645;-65
2023/12/12 01:38:44;;;;;;;10.10;4.10;;;;;;;12.38;36.50;100075.90;105460;1252;60553;-62
2023/12/12 01:41:12;;;;;;;10.40;4.20;;;;;;;12.35;36.46;100073.91;105567;1257;65394;-62
2023/12/12 01:43:40;;;;;;;10.10;4.70;;;;;;;12.32;36.38;100070.92;105712;1251;60457;-68
2023/12/12 01:46:09;;;;;;;12.60;6.30;;;;;;;12.25;36.43;100070.41;105575;1255;63775;-65
2023/12/12 01:48:37;;;;;;;9.00;3.50;;;;;;;12.19;36.48;100068.54;105766;1257;60556;-65
2023/12/12 01:51:05;;;;;;;13.90;4.80;;;;;;;12.16;36.61;100065.28;105581;1251;60560;-66
2023/12/12 01:53:39;;;;;;;11.70;4.60;;;;;;;12.14;36.72;100062.11;105947;1251;63703;-64
2023/12/12 01:56:07;;;;;;;11.00;3.80;;;;;;;12.13;36.64;100057.35;105876;1257;61381;-64
2023/12/12 01:58:35;;;;;;;10.60;3.40;;;;;;;12.09;36.56;100053.95;105828;1252;63674;-68
2023/12/12 02:01:02;;;;;;;11.10;2.80;;;;;;;12.06;36.41;100050.30;105326;1251;60373;-67
2023/12/12 02:03:30;;;;;;;9.40;3.80;;;;;;;12.05;36.27;100054.54;103238;1251;3775693;-65
2023/12/12 02:08:15;;;;;;;7.60;2.80;;;;;;;10.10;40.20;100054.58;102257;1292;601199;-64
2023/12/12 02:10:42;;;;;;;10.30;4.20;;;;;;;11.55;37.56;100046.52;104407;1265;59253;-62
2023/12/12 02:13:11;;;;;;;9.90;3.20;;;;;;;11.81;37.26;100040.44;104496;1272;59332;-63
2023/12/12 02:15:38;;;;;;;9.20;4.30;;;;;;;11.94;37.09;100042.29;104588;1271;62243;-63
2023/12/12 02:18:06;;;;;;;10.50;3.90;;;;;;;11.98;36.90;100040.52;105071;1265;61544;-65
2023/12/12 02:20:34;;;;;;;10.50;4.00;;;;;;;11.98;36.95;100036.34;104935;1263;63919;-65
2023/12/12 02:23:01;;;;;;;14.00;5.80;;;;;;;11.95;36.92;100033.93;102602;1262;3612400;-65
2023/12/12 02:25:29;;;;;;;10.80;4.50;;;;;;;11.97;36.94;100032.25;105485;1258;59388;-66
2023/12/12 02:27:57;;;;;;;11.60;4.60;;;;;;;11.97;36.83;100030.27;105142;1262;62226;-66
2023/12/12 02:30:24;;;;;;;12.90;4.50;;;;;;;11.95;36.88;100030.60;105107;1266;60324;-66
2023/12/12 02:32:52;;;;;;;12.10;4.20;;;;;;;11.98;36.83;100033.05;105222;1261;63757;-53
2023/12/12 02:35:20;;;;;;;12.40;4.20;;;;;;;11.96;36.85;100032.79;105202;1257;59755;-62
2023/12/12 02:37:48;;;;;;;11.00;4.70;;;;;;;11.95;36.81;100030.81;105282;1262;59602;-63
2023/12/12 02:40:15;;;;;;;10.60;3.40;;;;;;;11.94;36.66;100027.52;105218;1261;64129;-63
2023/12/12 02:42:44;;;;;;;7.00;2.50;;;;;;;12.03;36.68;100028.85;105148;1263;61351;-67
2023/12/12 02:45:12;;;;;;;11.50;4.30;;;;;;;12.12;36.62;100020.29;105282;1259;62444;-65
2023/12/12 02:47:40;;;;;;;6.50;2.20;;;;;;;12.21;36.60;100017.13;105210;1263;59736;-68
2023/12/12 02:50:08;;;;;;;11.00;5.00;;;;;;;12.30;36.52;100021.58;105314;1256;59746;-68
2023/12/12 02:52:36;;;;;;;11.70;3.40;;;;;;;12.34;36.27;100020.84;105223;1263;63008;-65
2023/12/12 02:55:03;;;;;;;10.40;4.80;;;;;;;12.30;36.07;100016.85;105254;1262;62028;-67
2023/12/12 02:57:31;;;;;;;10.80;5.00;;;;;;;12.27;36.12;100008.73;105523;1260;63712;-64
2023/12/12 03:00:00;;;;;;;11.80;5.70;;;;;;;12.28;36.14;100006.47;105172;1267;60515;-68
2023/12/12 03:02:27;;;;;;;13.10;5.30;;;;;;;12.31;36.18;100004.86;105185;1262;59513;-66
2023/12/12 03:04:55;;;;;;;14.10;5.50;;;;;;;12.28;36.17;100003.67;105100;1258;64313;-64
2023/12/12 03:07:23;;;;;;;11.60;4.10;;;;;;;12.25;36.15;100000.09;105087;1259;60169;-64
2023/12/12 03:09:51;;;;;;;9.30;4.40;;;;;;;12.21;36.16;99997.80;105019;1257;62543;-66
2023/12/12 03:12:18;;;;;;;12.50;5.30;;;;;;;12.16;36.21;99998.27;105673;1261;60294;-68
2023/12/12 03:14:46;;;;;;;9.30;3.70;;;;;;;12.10;36.40;99999.22;105139;1261;59735;-66
2023/12/12 03:17:14;;;;;;;11.10;5.20;;;;;;;12.05;36.32;100000.55;105101;1258;64174;-67
2023/12/12 03:19:42;;;;;;;10.90;5.10;;;;;;;12.00;36.42;100001.16;105326;1262;60182;-68
2023/12/12 03:22:10;;;;;;;7.90;4.40;;;;;;;11.94;36.46;100004.00;105097;1264;62555;-68
2023/12/12 03:24:37;;;;;;;10.30;3.70;;;;;;;11.90;36.30;100005.26;105186;1260;59757;-68
2023/12/12 03:27:08;;;;;;;11.40;4.40;;;;;;;11.87;36.36;100011.77;105167;1258;59730;-68
2023/12/12 03:29:36;;;;;;;11.10;3.00;;;;;;;11.88;36.38;100017.35;105391;1261;64212;-67
2023/12/12 03:32:04;;;;;;;8.00;2.80;;;;;;;11.91;36.42;100020.44;105228;1261;61358;-68
2023/12/12 03:34:32;;;;;;;13.50;5.10;;;;;;;11.95;36.46;100019.42;105475;1262;63719;-66
2023/12/12 03:36:59;;;;;;;9.70;4.00;;;;;;;11.99;36.47;100011.79;105195;1261;59636;-67
2023/12/12 03:39:28;;;;;;;13.40;5.50;;;;;;;12.01;36.48;100009.88;105182;1261;59511;-67
2023/12/12 03:41:56;;;;;;;10.60;4.30;;;;;;;12.05;36.57;100008.05;105641;1262;62846;-64
2023/12/12 03:44:23;;;;;;;14.20;5.50;;;;;;;12.07;36.42;100014.60;105198;1257;61452;-62
2023/12/12 03:46:51;;;;;;;12.90;5.40;;;;;;;12.05;36.46;100015.34;105026;1263;63864;-66
2023/12/12 03:49:19;;;;;;;14.20;6.00;;;;;;;12.01;36.39;100011.80;105117;1256;59752;-62
2023/12/12 03:51:46;;;;;;;13.70;6.60;;;;;;;11.95;36.48;100016.36;105144;1260;59654;-61
2023/12/12 03:54:14;;;;;;;14.10;5.60;;;;;;;11.90;36.51;100021.54;105202;1261;62853;-59
2023/12/12 03:56:42;;;;;;;13.70;5.50;;;;;;;11.84;36.53;100025.95;105213;1261;60177;-63
2023/12/12 03:59:09;;;;;;;12.90;4.30;;;;;;;11.78;36.55;100022.13;105146;1257;63675;-63
2023/12/12 04:01:37;;;;;;;9.30;3.90;;;;;;;11.74;36.66;100019.88;105122;1259;59744;-63
2023/12/12 04:04:05;;;;;;;10.40;4.00;;;;;;;11.70;36.69;100018.27;105260;1261;59680;-61
2023/12/12 04:06:33;;;;;;;10.50;5.40;;;;;;;11.70;36.77;100019.46;105120;1261;64589;-64
2023/12/12 04:09:00;;;;;;;11.70;3.40;;;;;;;11.78;36.71;100024.78;105155;1264;62810;-63
2023/12/12 04:11:28;;;;;;;11.00;4.20;;;;;;;11.88;36.70;100026.31;105547;1257;63703;-65
2023/12/12 04:13:56;;;;;;;6.50;3.00;;;;;;;11.95;36.69;100029.94;105212;1257;60856;-68
2023/12/12 04:16:24;;;;;;;12.30;5.90;;;;;;;11.99;36.49;100031.63;105728;1261;59746;-67
2023/12/12 04:18:51;;;;;;;15.40;5.00;;;;;;;11.94;36.48;100028.41;105134;1256;64146;-63
2023/12/12 04:21:19;;;;;;;11.80;3.90;;;;;;;11.89;36.57;100024.95;105178;1261;60287;-65
2023/12/12 04:23:47;;;;;;;10.40;5.00;;;;;;;11.85;36.65;100025.04;105110;1261;63781;-66
2023/12/12 04:26:14;;;;;;;15.30;5.60;;;;;;;11.80;36.68;100021.09;105058;1257;59762;-63
2023/12/12 04:28:42;;;;;;;12.50;4.60;;;;;;;11.77;36.70;100024.54;105220;1263;59639;-64
2023/12/12 04:31:16;;;;;;;8.40;2.90;;;;;;;11.78;36.71;100025.17;105357;1258;64079;-66
2023/12/12 04:33:44;;;;;;;14.90;6.50;;;;;;;11.72;36.68;100023.53;105247;1260;60491;-65
2023/12/12 04:36:15;;;;;;;11.00;4.50;;;;;;;11.67;36.81;100021.57;105246;1261;62426;-67
2023/12/12 04:38:42;;;;;;;17.30;5.80;;;;;;;11.59;36.90;100017.88;105218;1258;59797;-66
2023/12/12 04:41:10;;;;;;;10.20;3.20;;;;;;;11.61;36.91;100015.02;105116;1261;59513;-65
2023/12/12 04:43:38;;;;;;;14.20;5.00;;;;;;;11.71;36.97;100014.49;105122;1257;64066;-66
2023/12/12 04:46:05;;;;;;;11.30;5.30;;;;;;;11.79;37.00;100022.07;105339;1262;61502;-66
2023/12/12 04:48:33;;;;;;;10.50;4.40;;;;;;;11.87;36.92;100026.76;105604;1257;63747;-66
2023/12/12 04:51:02;;;;;;;11.90;4.70;;;;;;;11.92;37.05;100028.95;106307;1257;59628;-66
2023/12/12 04:53:30;;;;;;;11.90;5.30;;;;;;;11.95;37.07;100026.95;105559;1261;59638;-63
2023/12/12 04:55:57;;;;;;;11.20;4.10;;;;;;;11.98;36.96;100028.96;105522;1260;64103;-64
2023/12/12 04:58:25;;;;;;;15.50;5.40;;;;;;;11.99;36.81;100032.55;104861;1264;60137;-65
2023/12/12 05:00:52;;;;;;;16.60;5.70;;;;;;;11.96;36.77;100034.40;105101;1257;62504;-66
2023/12/12 05:03:20;;;;;;;13.20;5.00;;;;;;;11.88;36.86;100034.21;105147;1259;59650;-67
2023/12/12 05:05:48;;;;;;;17.80;6.30;;;;;;;11.83;36.86;100035.58;105167;1262;61962;-62
2023/12/12 05:08:16;;;;;;;13.80;6.90;;;;;;;11.81;36.90;100034.52;105300;1257;62922;-67
2023/12/12 05:10:44;;;;;;;16.60;7.60;;;;;;;11.82;37.05;100038.86;105207;1260;61935;-66
2023/12/12 05:13:11;;;;;;;17.00;6.60;;;;;;;11.84;37.19;100040.60;105196;1261;62428;-63
2023/12/12 05:15:40;;;;;;;14.40;6.90;;;;;;;11.84;37.14;100040.27;105156;1260;59763;-66
2023/12/12 05:18:08;;;;;;;21.40;8.00;;;;;;;11.93;36.94;100034.48;105285;1257;59758;-65
2023/12/12 05:20:36;;;;;;;20.00;8.20;;;;;;;12.05;36.96;100028.30;105174;1261;64213;-65
2023/12/12 05:23:03;;;;;;;15.90;4.80;;;;;;;12.13;36.87;100023.22;105430;1257;61343;-65
2023/12/12 05:25:31;;;;;;;13.00;5.70;;;;;;;12.20;36.83;100019.77;105151;1257;62536;-65
2023/12/12 05:27:59;;;;;;;12.00;4.80;;;;;;;12.30;36.79;100023.72;105554;1260;59714;-61
2023/12/12 05:30:27;;;;;;;11.90;4.80;;;;;;;12.43;36.72;100027.45;105540;1257;59741;-60
2023/12/12 05:32:54;;;;;;;28.90;11.80;;;;;;;12.49;36.62;100025.14;105111;1257;62837;-60
2023/12/12 05:35:22;;;;;;;57.10;25.30;;;;;;;12.50;36.52;100028.44;105613;1261;60413;-61
2023/12/12 05:37:50;;;;;;;17.50;6.70;;;;;;;12.46;36.39;100028.45;105834;1257;63766;-59
2023/12/12 05:40:18;;;;;;;9.90;4.50;;;;;;;12.42;36.36;100031.43;105115;1257;59556;-61
2023/12/12 05:42:46;;;;;;;16.00;6.50;;;;;;;12.32;36.27;100031.67;105160;1257;59742;-61
2023/12/12 05:45:13;;;;;;;12.50;5.00;;;;;;;12.22;36.42;100028.65;105165;1260;64877;-61
2023/12/12 05:47:42;;;;;;;16.50;5.80;;;;;;;12.21;36.43;100021.90;105339;1257;61415;-61
2023/12/12 05:50:11;;;;;;;11.10;4.40;;;;;;;12.19;36.41;100017.95;105147;1263;62496;-61
2023/12/12 05:52:39;;;;;;;14.30;5.30;;;;;;;12.17;36.49;100020.00;105197;1261;60748;-62
2023/12/12 05:55:08;;;;;;;11.40;5.00;;;;;;;12.15;36.63;100021.27;105314;1257;59637;-61
2023/12/12 05:57:36;;;;;;;11.50;4.10;;;;;;;12.12;36.66;100023.30;105339;1257;62947;-62
2023/12/12 06:00:05;;;;;;;10.00;4.20;;;;;;;12.06;36.51;100033.52;105129;1262;61322;-61
2023/12/12 06:02:40;;;;;;;17.00;5.20;;;;;;;12.03;36.44;100035.70;105280;1257;63689;-61
2023/12/12 06:05:08;;;;;;;10.10;4.70;;;;;;;12.05;36.47;100036.73;105480;1257;59744;-61
2023/12/12 06:07:36;;;;;;;19.60;7.30;;;;;;;12.10;36.51;100036.86;105442;1257;59603;-61
2023/12/12 06:10:05;;;;;;;9.80;4.40;;;;;;;12.15;36.40;100034.27;105417;1257;62869;-61
2023/12/12 06:12:36;;;;;;;15.70;6.70;;;;;;;12.21;36.47;100030.95;105533;1260;60147;-61
2023/12/12 06:15:07;;;;;;;17.00;6.80;;;;;;;12.23;36.49;100028.42;105199;1258;64491;-61
2023/12/12 06:17:35;;;;;;;11.90;5.10;;;;;;;12.24;36.57;100029.91;105181;1257;60543;-61
2023/12/12 06:20:04;;;;;;;11.90;4.10;;;;;;;12.29;36.64;100030.91;105404;1258;60459;-61
2023/12/12 06:22:34;;;;;;;7.50;3.60;;;;;;;12.29;36.59;100031.25;105394;1260;64882;-61
2023/12/12 06:25:01;;;;;;;11.20;4.30;;;;;;;12.24;36.49;100028.70;105439;1257;61531;-62
2023/12/12 06:27:29;;;;;;;13.80;5.60;;;;;;;12.17;36.59;100026.13;105496;1261;63789;-61
2023/12/12 06:29:57;;;;;;;13.00;4.00;;;;;;;12.18;36.47;100032.02;105518;1260;60842;-60
2023/12/12 06:32:25;;;;;;;13.20;5.80;;;;;;;12.18;36.42;100037.16;106253;1257;60559;-61
2023/12/12 06:34:53;;;;;;;12.50;5.20;;;;;;;12.14;36.41;100037.41;105239;1260;63737;-64
2023/12/12 06:37:21;;;;;;;13.30;4.50;;;;;;;12.11;36.57;100038.33;105745;1257;61444;-61
2023/12/12 06:39:49;;;;;;;11.30;4.10;;;;;;;12.07;36.60;100039.33;105100;1261;62451;-62
2023/12/12 06:42:16;;;;;;;10.50;3.70;;;;;;;12.11;36.52;100039.25;105096;1262;60571;-60
2023/12/12 06:44:44;;;;;;;8.30;2.60;;;;;;;12.19;36.43;100034.94;105225;1261;60359;-64
2023/12/12 06:47:11;;;;;;;11.60;4.20;;;;;;;12.32;36.27;100036.44;105237;1257;66349;-64
2023/12/12 06:49:39;;;;;;;14.00;6.10;;;;;;;12.43;36.27;100032.05;106127;1254;61404;-70
2023/12/12 06:52:09;;;;;;;11.40;4.80;;;;;;;12.54;36.21;100034.20;106185;1257;62506;-67
2023/12/12 06:54:37;;;;;;;14.60;6.30;;;;;;;12.58;36.14;100035.38;106169;1257;60461;-68
2023/12/12 06:57:05;;;;;;;11.60;6.00;;;;;;;12.60;36.19;100037.32;106190;1253;60470;-68
2023/12/12 06:59:32;;;;;;;9.30;4.30;;;;;;;12.61;36.13;100034.35;106135;1258;72998;-68
2023/12/12 07:02:00;;;;;;;10.90;5.00;;;;;;;12.61;35.97;100039.66;106170;1258;61530;-69
2023/12/12 07:04:28;;;;;;;13.30;5.10;;;;;;;12.59;35.90;100041.21;106526;1253;62909;-68
2023/12/12 07:06:55;;;;;;;10.10;4.10;;;;;;;12.51;35.89;100044.35;106140;1265;60934;-66
2023/12/12 07:09:23;;;;;;;8.80;5.70;;;;;;;12.42;35.85;100042.52;106410;1253;60413;-69
2023/12/12 07:11:51;;;;;;;12.50;5.10;;;;;;;12.35;35.90;100038.90;106074;1255;64979;-69
2023/12/12 07:14:19;;;;;;;11.90;4.90;;;;;;;12.29;35.92;100037.93;106035;1254;61312;-67
2023/12/12 07:16:46;;;;;;;10.10;4.40;;;;;;;12.27;36.02;100037.35;106068;1253;63770;-67
2023/12/12 07:19:14;;;;;;;15.20;5.20;;;;;;;12.26;36.05;100032.67;106064;1257;60472;-69
2023/12/12 07:21:42;;;;;;;8.30;2.60;;;;;;;12.35;35.91;100030.81;106047;1254;60463;-67
2023/12/12 07:24:10;;;;;;;6.70;2.70;;;;;;;12.41;35.82;100035.21;106048;1253;63656;-69
2023/12/12 07:26:38;;;;;;;8.50;3.40;;;;;;;12.44;35.80;100039.81;106005;1254;62509;-69
2023/12/12 07:29:05;;;;;;;12.30;4.70;;;;;;;12.51;35.84;100041.70;106043;1253;63695;-60
2023/12/12 07:31:33;;;;;;;9.00;3.90;;;;;;;12.50;35.73;100046.16;105339;1253;60445;-64
2023/12/12 07:34:01;;;;;;;10.40;5.90;;;;;;;12.40;35.67;100049.21;105663;1259;60478;-67
2023/12/12 07:36:29;;;;;;;9.70;4.30;;;;;;;12.35;35.85;100055.98;105371;1253;65516;-62
2023/12/12 07:39:00;;;;;;;17.10;6.30;;;;;;;12.30;35.89;100064.54;105328;1254;60536;-66
2023/12/12 07:41:28;;;;;;;11.00;5.00;;;;;;;12.19;35.77;100072.38;105733;1254;63694;-66
2023/12/12 07:43:55;;;;;;;7.30;3.10;;;;;;;12.05;35.78;100067.31;105342;1254;60463;-65
2023/12/12 07:46:23;;;;;;;10.90;4.00;;;;;;;11.95;35.90;100063.52;105333;1254;60454;-64
2023/12/12 07:48:52;;;;;;;8.20;2.90;;;;;;;11.86;36.02;100064.99;105846;1257;64914;-61
2023/12/12 07:51:21;;;;;;;10.20;4.10;;;;;;;11.81;36.12;100067.33;105573;1259;60805;-65
2023/12/12 07:53:49;;;;;;;9.60;2.50;;;;;;;11.85;36.14;100064.88;105986;1254;63694;-63
2023/12/12 07:56:16;;;;;;;6.30;2.50;;;;;;;11.88;36.04;100058.61;105341;1254;60502;-63
2023/12/12 07:58:44;;;;;;;10.00;4.00;;;;;;;11.92;36.02;100054.14;105428;1256;59277;-64
2023/12/12 08:01:12;;;;;;;11.50;3.70;;;;;;;11.90;36.11;100058.98;105351;1256;64854;-64
2023/12/12 08:03:40;;;;;;;10.00;3.00;;;;;;;11.89;36.18;100065.21;105408;1252;61906;-63
2023/12/12 08:06:08;;;;;;;8.20;3.00;;;;;;;11.90;36.23;100071.13;105349;1257;63732;-65
2023/12/12 08:08:36;;;;;;;10.10;4.60;;;;;;;11.90;36.25;100072.33;105499;1253;60554;-66
2023/12/12 08:11:04;;;;;;;14.20;5.30;;;;;;;11.89;36.39;100070.10;105549;1253;60550;-66
2023/12/12 08:13:32;;;;;;;10.70;3.80;;;;;;;11.92;36.35;100069.90;105625;1253;64927;-64
2023/12/12 08:16:00;;;;;;;15.70;7.60;;;;;;;11.89;36.39;100075.09;105678;1253;61310;-64
2023/12/12 08:18:27;;;;;;;13.00;5.00;;;;;;;11.83;36.44;100092.33;105721;1254;62478;-63
2023/12/12 08:20:55;;;;;;;8.70;3.50;;;;;;;11.81;36.43;100097.38;105751;1255;60909;-62
2023/12/12 08:23:23;;;;;;;10.20;3.10;;;;;;;11.87;36.43;100089.87;105983;1254;60438;-63
2023/12/12 08:25:51;;;;;;;12.10;4.20;;;;;;;11.92;36.20;100086.42;105404;1253;64960;-63
2023/12/12 08:28:18;;;;;;;10.90;3.60;;;;;;;11.92;36.22;100090.30;105377;1252;60549;-61
2023/12/12 08:30:46;;;;;;;11.60;4.60;;;;;;;11.91;36.26;100087.23;105462;1257;62476;-65
2023/12/12 08:33:14;;;;;;;10.10;4.10;;;;;;;11.91;36.35;100088.45;105361;1257;60566;-64
2023/12/12 08:35:42;;;;;;;12.30;5.90;;;;;;;11.92;36.27;100089.66;105405;1252;60667;-65
2023/12/12 08:38:11;;;;;;;13.60;5.00;;;;;;;11.89;36.21;100082.98;105378;1253;64925;-64
2023/12/12 08:40:39;;;;;;;11.60;5.10;;;;;;;11.86;36.37;100077.15;105560;1257;60440;-65
2023/12/12 08:43:06;;;;;;;12.20;4.50;;;;;;;11.83;36.46;100081.65;105324;1257;62556;-66
2023/12/12 08:45:34;;;;;;;14.70;5.30;;;;;;;11.85;36.59;100082.33;105349;1254;60435;-65
2023/12/12 08:48:02;;;;;;;9.50;4.10;;;;;;;11.87;36.51;100072.92;105334;1254;60488;-65
2023/12/12 08:50:30;;;;;;;9.10;2.70;;;;;;;11.88;36.59;100068.10;105723;1253;63614;-64
2023/12/12 08:52:58;;;;;;;7.50;2.80;;;;;;;11.92;36.55;100064.80;105223;1255;62188;-64
2023/12/12 08:55:25;;;;;;;10.40;3.70;;;;;;;12.06;36.55;100060.45;105306;1257;63681;-65
2023/12/12 08:57:53;;;;;;;10.40;2.90;;;;;;;12.20;36.44;100060.39;105169;1258;60550;-67
2023/12/12 09:00:21;;;;;;;9.40;3.50;;;;;;;12.28;36.35;100049.79;105203;1258;60432;-64
2023/12/12 09:02:49;;;;;;;9.70;5.00;;;;;;;12.37;36.20;100046.24;105921;1253;63831;-63
2023/12/12 09:05:17;;;;;;;8.60;3.70;;;;;;;12.44;36.08;100046.67;105244;1254;61391;-61
2023/12/12 09:07:45;;;;;;;8.00;3.00;;;;;;;12.43;36.11;100047.09;105298;1253;63639;-63
2023/12/12 09:10:13;;;;;;;10.50;5.20;;;;;;;12.44;36.14;100049.80;106012;1254;60479;-68
2023/12/12 09:12:41;;;;;;;10.90;5.30;;;;;;;12.48;36.08;100049.02;105320;1258;60372;-66
2023/12/12 09:15:09;;;;;;;13.00;5.30;;;;;;;12.52;36.02;100050.21;105849;1253;64954;-67
2023/12/12 09:17:37;;;;;;;13.90;5.20;;;;;;;12.49;35.86;100049.55;105925;1254;62078;-60
2023/12/12 09:20:06;;;;;;;11.20;4.00;;;;;;;12.42;35.87;100046.34;105943;1257;62551;-67
2023/12/12 09:22:34;;;;;;;13.30;5.20;;;;;;;12.41;35.90;100049.22;106182;1253;60463;-67
2023/12/12 09:25:02;;;;;;;8.50;4.30;;;;;;;12.35;35.72;100050.03;105998;1255;60458;-68
2023/12/12 09:27:30;;;;;;;9.50;3.80;;;;;;;12.24;35.60;100049.23;105973;1257;65567;-69
2023/12/12 09:29:58;;;;;;;8.50;3.50;;;;;;;12.23;35.72;100042.80;106158;1257;60326;-65
2023/12/12 09:32:25;;;;;;;7.30;2.40;;;;;;;12.29;35.77;100044.94;105962;1254;62619;-68
2023/12/12 09:34:54;;;;;;;9.20;2.80;;;;;;;12.35;35.73;100041.63;105945;1253;60538;-69
2023/12/12 09:37:23;;;;;;;12.40;4.80;;;;;;;12.43;35.77;100035.88;106047;1253;60524;-67
2023/12/12 09:39:51;;;;;;;7.70;3.10;;;;;;;12.47;35.69;100033.55;106499;1253;63721;-69
2023/12/12 09:42:18;;;;;;;8.80;3.40;;;;;;;12.47;35.62;100030.94;106366;1257;61317;-68
2023/12/12 09:44:51;;;;;;;11.00;4.60;;;;;;;12.48;35.74;100027.35;106044;1253;63658;-67
2023/12/12 09:47:19;;;;;;;12.60;4.50;;;;;;;12.51;35.77;100025.83;106047;1258;60480;-70
2023/12/12 09:49:46;;;;;;;12.20;4.70;;;;;;;12.58;35.75;100027.44;106074;1254;60508;-69
2023/12/12 09:52:16;;;;;;;17.30;6.40;;;;;;;12.61;35.65;100032.06;106068;1253;63710;-68
2023/12/12 09:54:44;;;;;;;10.70;4.70;;;;;;;12.60;35.57;100028.70;106060;1253;61555;-70
2023/12/12 09:57:11;;;;;;;10.70;4.10;;;;;;;12.58;35.64;100022.20;105976;1260;62510;-67
2023/12/12 09:59:39;;;;;;;12.40;4.40;;;;;;;12.59;35.54;100025.40;105973;1260;60563;-69
2023/12/12 10:02:07;;;;;;;10.20;3.80;;;;;;;12.59;35.40;100025.29;106051;1253;60550;-69
2023/12/12 10:04:45;;;;;;;10.10;3.80;;;;;;;12.55;35.48;100020.36;105920;1254;63688;-69
2023/12/12 10:07:13;;;;;;;11.60;5.10;;;;;;;12.57;35.50;100017.52;105992;1253;61726;-64
2023/12/12 10:09:41;;;;;;;10.00;4.50;;;;;;;12.66;35.45;100017.04;105978;1258;62963;-67
2023/12/12 10:12:09;;;;;;;12.80;5.50;;;;;;;12.74;35.32;100015.23;106024;1254;60510;-70
2023/12/12 10:14:38;;;;;;;10.80;4.20;;;;;;;12.83;35.29;100011.41;106011;1256;60319;-68
2023/12/12 10:17:06;;;;;;;11.40;4.30;;;;;;;12.95;35.19;100007.80;106002;1258;65084;-69
2023/12/12 10:19:34;;;;;;;11.90;4.90;;;;;;;12.99;35.08;100008.77;105974;1253;60535;-67
2023/12/12 10:22:08;;;;;;;10.40;5.60;;;;;;;13.07;35.13;100007.79;106007;1253;62479;-67
2023/12/12 10:24:36;;;;;;;12.20;5.30;;;;;;;13.13;34.96;100007.77;105983;1258;60633;-67
2023/12/12 10:27:04;;;;;;;12.20;5.80;;;;;;;13.11;34.68;100010.98;106026;1253;60565;-68
2023/12/12 10:29:32;;;;;;;11.90;4.20;;;;;;;13.01;34.61;100006.28;106035;1253;63708;-70
2023/12/12 10:31:59;;;;;;;14.60;4.80;;;;;;;12.95;34.84;100008.61;106076;1253;61401;-67
2023/12/12 10:34:27;;;;;;;9.20;4.10;;;;;;;12.93;34.93;100005.36;106019;1254;64266;-67
2023/12/12 10:36:57;;;;;;;10.60;3.20;;;;;;;12.87;34.94;100005.89;106059;1253;60883;-69
2023/12/12 10:39:28;;;;;;;9.80;4.70;;;;;;;12.79;34.88;100009.11;106502;1253;60476;-69
2023/12/12 10:41:56;;;;;;;8.50;3.90;;;;;;;12.74;35.01;100014.81;106026;1253;73791;-69
2023/12/12 10:44:30;;;;;;;13.10;4.50;;;;;;;12.71;35.07;100012.82;105990;1257;60374;-68
2023/12/12 10:47:01;;;;;;;13.30;4.60;;;;;;;12.71;35.15;100016.60;106426;1253;63747;-66
2023/12/12 10:49:34;;;;;;;16.30;5.30;;;;;;;12.69;34.98;100016.77;106032;1255;60454;-69
2023/12/12 10:52:03;;;;;;;9.40;3.50;;;;;;;12.68;34.91;100014.89;106335;1257;60515;-63
2023/12/12 10:54:35;;;;;;;13.00;5.20;;;;;;;12.68;34.86;100009.63;106264;1253;63661;-68
2023/12/12 10:57:04;;;;;;;10.50;3.80;;;;;;;12.71;34.98;100008.67;106052;1255;60559;-69
2023/12/12 10:59:33;;;;;;;9.10;3.80;;;;;;;12.76;35.16;100012.73;105988;1258;62580;-67
2023/12/12 11:02:21;;;;;;;12.40;4.40;;;;;;;12.80;35.13;100016.62;106045;1253;61722;-67
2023/12/12 11:04:48;;;;;;;11.80;5.10;;;;;;;12.81;35.05;100013.80;106080;1253;60521;-68
2023/12/12 11:07:16;;;;;;;13.70;4.20;;;;;;;12.83;35.02;100013.66;105977;1258;64910;-69
2023/12/12 11:09:43;;;;;;;12.00;4.60;;;;;;;12.84;35.09;100017.08;105997;1259;60688;-68
2023/12/12 11:12:11;;;;;;;12.90;5.40;;;;;;;12.81;35.03;100023.14;106072;1253;64515;-67
2023/12/12 11:14:38;;;;;;;13.90;5.60;;;;;;;12.78;34.98;100025.61;105980;1254;60353;-68
2023/12/12 11:17:10;;;;;;;10.40;4.30;;;;;;;12.73;34.88;100029.44;106047;1253;60606;-65
2023/12/12 11:19:39;;;;;;;12.30;5.80;;;;;;;12.62;34.81;100029.04;106143;1253;63844;-69